Shun Cheng — BBUL — position and weather

sailwx.info

Track history (hours):
 
Tides and Currents Weather Stations Pressure Air Temp Water Temp Dewpoint Dewpoint Depression Visibility Wind Speed Wind Dir Waves Ship Positions

Shun Cheng

Last reported at 2014-Oct-31 16:31 UTC. Time now 2014-Oct-31 22:10 UTC.
Position N 35°04' E 139°38'.

Length 128 m; draft 6 m.

Type: Cargo ship. MMSI: 412949000.

Date/timePositionNaut miles runAvg speedWind from/ knotsBaromVisibWave heightAir tempDewpointWater temp
2014-Oct-31 16:31N 35°04' E 139°38'1212.9
2014-Oct-31 15:34N 35°14' E 139°46'1111.2
2014-Oct-31 14:33N 35°26' E 139°45'10 9.8
2014-Oct-31 13:32N 35°36' E 139°47'2 2.1
2014-Oct-31 12:31N 35°37' E 139°46'0 0.0
2014-Oct-31 11:34N 35°37' E 139°46'0 0.0
2014-Oct-31 10:16N 35°37' E 139°46'0 0.0
2014-Oct-31 09:24N 35°37' E 139°46'0 0.0
2014-Oct-31 08:08N 35°37' E 139°46'3 4.2
2014-Oct-31 07:24N 35°35' E 139°48'8 9.0
2014-Oct-31 06:33N 35°28' E 139°50'8 8.1
2014-Oct-31 05:34N 35°27' E 139°40'0 0.0
2014-Oct-31 04:32N 35°27' E 139°40'0 0.0
2014-Oct-31 03:32N 35°27' E 139°40'0 0.0
2014-Oct-31 02:32N 35°27' E 139°40'0 0.0
2014-Oct-31 01:32N 35°27' E 139°40'2 2.1
2014-Oct-31 00:33N 35°26' E 139°43'9 9.1
2014-Oct-30 23:33N 35°17' E 139°45'1110.5
2014-Oct-30 22:31N 35°06' E 139°44'243 6.7
2014-Oct-29 10:32N 34°06' E 134°58'1414.6
2014-Oct-29 09:33N 34°20' E 134°59'1414.5
2014-Oct-29 08:33N 34°31' E 135°11'10 9.7
2014-Oct-29 07:33N 34°40' E 135°14'0 0.2
2014-Oct-29 06:28N 34°40' E 135°14'0 0.0
2014-Oct-29 05:28N 34°40' E 135°14'0 0.0
2014-Oct-29 04:28N 34°40' E 135°14'0 0.1
2014-Oct-29 03:33N 34°40' E 135°14'7 7.1
2014-Oct-29 02:34N 34°38' E 135°22'3 2.6
2014-Oct-29 01:24N 34°39' E 135°26'0 0.0
2014-Oct-29 00:24N 34°39' E 135°26'0 0.0
2014-Oct-28 23:33N 34°39' E 135°26'5 5.3
2014-Oct-28 22:32N 34°36' E 135°20'1010.4
2014-Oct-28 21:33N 34°29' E 135°11'1211.6
2014-Oct-28 20:33N 34°21' E 135°01'1111.2
2014-Oct-28 19:33N 34°10' E 134°59'1211.6
2014-Oct-28 18:29N 33°57' E 134°59'  
2014-Oct-26 11:08N 31°13' E 122°06'914.6
2014-Oct-26 10:30N 31°15' E 121°56'1313.9
2014-Oct-26 09:33N 31°20' E 121°41'1211.8
2014-Oct-26 08:33N 31°26' E 121°29'1111.5
2014-Oct-26 07:33N 31°33' E 121°19'1211.6
2014-Oct-26 06:33N 31°42' E 121°09'10 9.6
2014-Oct-26 05:33N 31°47' E 120°60'9 9.3
2014-Oct-26 04:33N 31°54' E 120°53'4 4.4
2014-Oct-26 03:33N 31°58' E 120°52'0 0.0
2014-Oct-26 02:31N 31°58' E 120°52'0 0.0
2014-Oct-26 01:31N 31°58' E 120°52'0 0.0
2014-Oct-26 00:19N 31°58' E 120°52'0 0.0
2014-Oct-25 23:29N 31°58' E 120°52'0 0.0
2014-Oct-25 22:31N 31°58' E 120°52'0 0.0
2014-Oct-25 21:28N 31°58' E 120°52'0 0.0
2014-Oct-25 20:13N 31°58' E 120°52'0 0.0
2014-Oct-25 19:28N 31°58' E 120°52'0 0.0
2014-Oct-25 18:24N 31°58' E 120°52'0 0.1
2014-Oct-25 17:33N 31°58' E 120°51'5 5.3
2014-Oct-25 16:33N 32°01' E 120°46'1110.9
2014-Oct-25 15:33N 32°01' E 120°33'8 7.5
2014-Oct-25 14:34N 31°58' E 120°25'0 0.1
2014-Oct-25 13:33N 31°58' E 120°25'0 0.0
2014-Oct-25 12:32N 31°58' E 120°25'0 0.0
2014-Oct-25 11:33N 31°58' E 120°25'0 0.0
2014-Oct-25 10:33N 31°58' E 120°25'0 0.0
2014-Oct-25 09:33N 31°58' E 120°25'0 0.0
2014-Oct-25 08:32N 31°58' E 120°25'0 0.0
2014-Oct-25 07:32N 31°58' E 120°25'0 0.0
2014-Oct-25 06:32N 31°58' E 120°25'0 0.0
2014-Oct-25 05:32N 31°58' E 120°25'0 0.0
2014-Oct-25 04:33N 31°58' E 120°25'0 0.0
2014-Oct-25 03:32N 31°58' E 120°25'0 0.0
2014-Oct-25 02:32N 31°58' E 120°25'0 0.0
2014-Oct-25 01:32N 31°58' E 120°25'0 0.0
2014-Oct-25 00:32N 31°58' E 120°25'0 0.0
2014-Oct-24 23:32N 31°58' E 120°25'0 0.0
2014-Oct-24 22:32N 31°58' E 120°25'0 0.0
2014-Oct-24 21:32N 31°58' E 120°25'0 0.0
2014-Oct-24 20:32N 31°58' E 120°25'0 0.0
2014-Oct-24 19:32N 31°58' E 120°25'0 0.0
2014-Oct-24 18:32N 31°58' E 120°25'0 0.0
2014-Oct-24 17:33N 31°58' E 120°25'5 4.5
2014-Oct-24 16:33N 31°58' E 120°20'10 9.7
2014-Oct-24 15:33N 31°56' E 120°08'1211.8
2014-Oct-24 14:33N 32°02' E 119°56'1413.7
2014-Oct-24 13:33N 32°16' E 119°52'5 0.2
2014-Oct-23 10:15N 32°19' E 119°48'7 9.5
2014-Oct-23 09:32N 32°14' E 119°53'1212.1
2014-Oct-23 08:34N 32°03' E 119°56'1211.6
2014-Oct-23 07:34N 31°56' E 120°08'1110.8
2014-Oct-23 06:33N 31°59' E 120°20'1110.9
2014-Oct-23 05:33N 32°04' E 120°32'9 9.5
2014-Oct-23 04:33N 32°00' E 120°42'9 8.7
2014-Oct-23 03:33N 31°57' E 120°52'1111.2
2014-Oct-23 02:33N 31°47' E 120°58'9 8.6
2014-Oct-23 01:32N 31°43' E 121°07'1110.8
2014-Oct-23 00:33N 31°37' E 121°17'1010.1
2014-Oct-22 23:33N 31°30' E 121°26'10 9.7
2014-Oct-22 22:33N 31°24' E 121°34'1110.3
2014-Oct-22 21:31N 31°19' E 121°45'10 9.8
2014-Oct-22 20:30N 31°15' E 121°56'  
Track history (hours):
 
Tides and Currents Weather Stations Pressure Air Temp Water Temp Dewpoint Dewpoint Depression Visibility Wind Speed Wind Dir Waves Ship Positions

Shun Cheng

Last reported at 2014-Oct-31 16:31 UTC. Time now 2014-Oct-31 22:10 UTC.
Position N 35°04' E 139°38'.

Length 128 m; draft 6 m.

Type: Cargo ship. MMSI: 412949000.

Date/timePositionNaut miles runAvg speedWind from/ knotsBaromVisibWave heightAir tempDewpointWater temp
2014-Oct-31 16:31N 35°04' E 139°38'1212.9
2014-Oct-31 15:34N 35°14' E 139°46'1111.2
2014-Oct-31 14:33N 35°26' E 139°45'10 9.8
2014-Oct-31 13:32N 35°36' E 139°47'2 2.1
2014-Oct-31 12:31N 35°37' E 139°46'0 0.0
2014-Oct-31 11:34N 35°37' E 139°46'0 0.0
2014-Oct-31 10:16N 35°37' E 139°46'0 0.0
2014-Oct-31 09:24N 35°37' E 139°46'0 0.0
2014-Oct-31 08:08N 35°37' E 139°46'3 4.2
2014-Oct-31 07:24N 35°35' E 139°48'8 9.0
2014-Oct-31 06:33N 35°28' E 139°50'8 8.1
2014-Oct-31 05:34N 35°27' E 139°40'0 0.0
2014-Oct-31 04:32N 35°27' E 139°40'0 0.0
2014-Oct-31 03:32N 35°27' E 139°40'0 0.0
2014-Oct-31 02:32N 35°27' E 139°40'0 0.0
2014-Oct-31 01:32N 35°27' E 139°40'2 2.1
2014-Oct-31 00:33N 35°26' E 139°43'9 9.1
2014-Oct-30 23:33N 35°17' E 139°45'1110.5
2014-Oct-30 22:31N 35°06' E 139°44'243 6.7
2014-Oct-29 10:32N 34°06' E 134°58'1414.6
2014-Oct-29 09:33N 34°20' E 134°59'1414.5
2014-Oct-29 08:33N 34°31' E 135°11'10 9.7
2014-Oct-29 07:33N 34°40' E 135°14'0 0.2
2014-Oct-29 06:28N 34°40' E 135°14'0 0.0
2014-Oct-29 05:28N 34°40' E 135°14'0 0.0
2014-Oct-29 04:28N 34°40' E 135°14'0 0.1
2014-Oct-29 03:33N 34°40' E 135°14'7 7.1
2014-Oct-29 02:34N 34°38' E 135°22'3 2.6
2014-Oct-29 01:24N 34°39' E 135°26'0 0.0
2014-Oct-29 00:24N 34°39' E 135°26'0 0.0
2014-Oct-28 23:33N 34°39' E 135°26'5 5.3
2014-Oct-28 22:32N 34°36' E 135°20'1010.4
2014-Oct-28 21:33N 34°29' E 135°11'1211.6
2014-Oct-28 20:33N 34°21' E 135°01'1111.2
2014-Oct-28 19:33N 34°10' E 134°59'1211.6
2014-Oct-28 18:29N 33°57' E 134°59'  
2014-Oct-26 11:08N 31°13' E 122°06'914.6
2014-Oct-26 10:30N 31°15' E 121°56'1313.9
2014-Oct-26 09:33N 31°20' E 121°41'1211.8
2014-Oct-26 08:33N 31°26' E 121°29'1111.5
2014-Oct-26 07:33N 31°33' E 121°19'1211.6
2014-Oct-26 06:33N 31°42' E 121°09'10 9.6
2014-Oct-26 05:33N 31°47' E 120°60'9 9.3
2014-Oct-26 04:33N 31°54' E 120°53'4 4.4
2014-Oct-26 03:33N 31°58' E 120°52'0 0.0
2014-Oct-26 02:31N 31°58' E 120°52'0 0.0
2014-Oct-26 01:31N 31°58' E 120°52'0 0.0
2014-Oct-26 00:19N 31°58' E 120°52'0 0.0
2014-Oct-25 23:29N 31°58' E 120°52'0 0.0
2014-Oct-25 22:31N 31°58' E 120°52'0 0.0
2014-Oct-25 21:28N 31°58' E 120°52'0 0.0
2014-Oct-25 20:13N 31°58' E 120°52'0 0.0
2014-Oct-25 19:28N 31°58' E 120°52'0 0.0
2014-Oct-25 18:24N 31°58' E 120°52'0 0.1
2014-Oct-25 17:33N 31°58' E 120°51'5 5.3
2014-Oct-25 16:33N 32°01' E 120°46'1110.9
2014-Oct-25 15:33N 32°01' E 120°33'8 7.5
2014-Oct-25 14:34N 31°58' E 120°25'0 0.1
2014-Oct-25 13:33N 31°58' E 120°25'0 0.0
2014-Oct-25 12:32N 31°58' E 120°25'0 0.0
2014-Oct-25 11:33N 31°58' E 120°25'0 0.0
2014-Oct-25 10:33N 31°58' E 120°25'0 0.0
2014-Oct-25 09:33N 31°58' E 120°25'0 0.0
2014-Oct-25 08:32N 31°58' E 120°25'0 0.0
2014-Oct-25 07:32N 31°58' E 120°25'0 0.0
2014-Oct-25 06:32N 31°58' E 120°25'0 0.0
2014-Oct-25 05:32N 31°58' E 120°25'0 0.0
2014-Oct-25 04:33N 31°58' E 120°25'0 0.0
2014-Oct-25 03:32N 31°58' E 120°25'0 0.0
2014-Oct-25 02:32N 31°58' E 120°25'0 0.0
2014-Oct-25 01:32N 31°58' E 120°25'0 0.0
2014-Oct-25 00:32N 31°58' E 120°25'0 0.0
2014-Oct-24 23:32N 31°58' E 120°25'0 0.0
2014-Oct-24 22:32N 31°58' E 120°25'0 0.0
2014-Oct-24 21:32N 31°58' E 120°25'0 0.0
2014-Oct-24 20:32N 31°58' E 120°25'0 0.0
2014-Oct-24 19:32N 31°58' E 120°25'0 0.0
2014-Oct-24 18:32N 31°58' E 120°25'0 0.0
2014-Oct-24 17:33N 31°58' E 120°25'5 4.5
2014-Oct-24 16:33N 31°58' E 120°20'10 9.7
2014-Oct-24 15:33N 31°56' E 120°08'1211.8
2014-Oct-24 14:33N 32°02' E 119°56'1413.7
2014-Oct-24 13:33N 32°16' E 119°52'5 0.2
2014-Oct-23 10:15N 32°19' E 119°48'7 9.5
2014-Oct-23 09:32N 32°14' E 119°53'1212.1
2014-Oct-23 08:34N 32°03' E 119°56'1211.6
2014-Oct-23 07:34N 31°56' E 120°08'1110.8
2014-Oct-23 06:33N 31°59' E 120°20'1110.9
2014-Oct-23 05:33N 32°04' E 120°32'9 9.5
2014-Oct-23 04:33N 32°00' E 120°42'9 8.7
2014-Oct-23 03:33N 31°57' E 120°52'1111.2
2014-Oct-23 02:33N 31°47' E 120°58'9 8.6
2014-Oct-23 01:32N 31°43' E 121°07'1110.8
2014-Oct-23 00:33N 31°37' E 121°17'1010.1
2014-Oct-22 23:33N 31°30' E 121°26'10 9.7
2014-Oct-22 22:33N 31°24' E 121°34'1110.3
2014-Oct-22 21:31N 31°19' E 121°45'10 9.8
2014-Oct-22 20:30N 31°15' E 121°56'  

Dump ship's entire track history